Aviation Digital Data Service (ADDS)

Output produced by METARs form (1004 UTC 07 December 2022)
found at http://www.aviationweather.gov/metar/data/
 
KMBO 070955Z AUTO 19007KT 8SM OVC012 20/20 A3018 RMK AO2
KMBO 070935Z AUTO 20007KT 8SM BKN009 OVC014 20/20 A3017 RMK AO2
KMBO 070915Z AUTO 20008KT 8SM BKN010 BKN014 20/21 A3018 RMK AO2
KMBO 070855Z AUTO 19007KT 8SM BKN012 20/21 A3017 RMK AO2
KMBO 070835Z AUTO 20008KT 9SM BKN013 BKN050 20/21 A3016 RMK AO2
KMBO 070815Z AUTO 21007KT 9SM BKN050 20/20 A3016 RMK AO2
KMBO 070755Z AUTO 20007KT 10SM BKN047 20/21 A3016 RMK AO2
KMBO 070735Z AUTO 20006KT 9SM BKN047 21/21 A3015 RMK AO2
KMBO 070715Z AUTO 19006KT 9SM CLR 21/21 A3014 RMK AO2
KMBO 070615Z AUTO 20007KT 10SM FEW045 21/21 A3013 RMK AO2
KMBO 070555Z AUTO VRB05KT 10SM SCT044 SCT120 21/21 A3013 RMK AO2
KMBO 070515Z AUTO 20009KT 10SM SCT100 SCT120 21/21 A3013 RMK AO2
KMBO 070455Z AUTO VRB05KT 10SM SCT100 SCT120 22/21 A3013 RMK AO2
KMBO 070435Z AUTO 18005G10KT 10SM CLR 22/21 A3012 RMK AO2
KMBO 070415Z AUTO 19005KT 10SM CLR 22/21 A3011 RMK AO2
KMBO 070355Z AUTO 19004KT 10SM FEW038 FEW050 22/21 A3011 RMK AO2
KMBO 070335Z AUTO 16004KT 10SM FEW032 FEW037 BKN050 22/21 A3010 RMK AO2
KMBO 070315Z AUTO VRB04KT 10SM SCT036 OVC055 22/21 A3010 RMK AO2
KMBO 070255Z AUTO VRB05G11KT 10SM BKN035 BKN046 BKN055 22/21 A3010 RMK AO2
KMBO 070235Z AUTO 20004KT 10SM SCT047 SCT055 22/20 A3008 RMK AO2
KMBO 070215Z AUTO VRB03KT 10SM FEW048 BKN055 22/20 A3007 RMK AO2
KMBO 070155Z AUTO 00000KT 10SM FEW045 BKN055 22/20 A3007 RMK AO2
KMBO 070135Z AUTO 00000KT 10SM BKN055 22/20 A3007 RMK AO2
KMBO 070115Z AUTO 00000KT 10SM FEW050 BKN060 22/20 A3007 RMK AO2
KMBO 070055Z AUTO 00000KT 10SM OVC055 22/20 A3007 RMK AO2
KMBO 070035Z AUTO 00000KT 10SM OVC055 23/20 A3006 RMK AO2
KMBO 070015Z AUTO 00000KT 10SM BKN055 23/20 A3006 RMK AO2
KMBO 062355Z AUTO 00000KT 10SM SCT055 23/20 A3005 RMK AO2
KMBO 062335Z AUTO 16003KT 10SM FEW050 23/20 A3005 RMK AO2
KMBO 062315Z AUTO 00000KT 10SM CLR 23/19 A3004 RMK AO2
KMBO 062255Z AUTO 00000KT 10SM CLR 24/19 A3003 RMK AO2
KMBO 062235Z AUTO 00000KT 10SM CLR 25/19 A3003 RMK AO2
KMBO 062215Z AUTO VRB03KT 10SM CLR 25/19 A3003 RMK AO2
KMBO 062155Z AUTO 21007KT 10SM SCT060 25/19 A3003 RMK AO2
KMBO 062135Z AUTO 21006G14KT 10SM BKN055 25/19 A3003 RMK AO2
KMBO 062115Z AUTO 21009KT 10SM FEW060 26/19 A3002 RMK AO2
KMBO 062055Z AUTO 21007G15KT 10SM FEW041 SCT049 BKN060 25/19 A3002 RMK AO2
KMBO 062035Z AUTO 21011KT 10SM SCT042 SCT055 26/19 A3002 RMK AO2
KMBO 062015Z AUTO 20011KT 10SM SCT043 BKN050 26/19 A3001 RMK AO2
KMBO 061955Z AUTO 22013G18KT 10SM SCT043 BKN049 BKN055 26/18 A3001 RMK AO2
KMBO 061935Z AUTO 20009KT 10SM SCT042 BKN049 BKN055 25/19 A3001 RMK AO2
KMBO 061915Z AUTO 20009KT 10SM FEW033 FEW039 FEW050 25/19 A3002 RMK AO2
KMBO 061855Z AUTO 21007G14KT 10SM FEW033 BKN039 BKN050 25/20 A3002 RMK AO2
KMBO 061835Z AUTO 21011G17KT 10SM FEW036 BKN050 25/20 A3003 RMK AO2
KMBO 061815Z AUTO 23010KT 10SM FEW032 BKN050 25/20 A3004 RMK AO2
KMBO 061755Z AUTO 21012G17KT 180V240 10SM SCT031 SCT037 BKN050 25/20 A3004 RMK AO2
KMBO 061735Z AUTO 22012KT 190V260 10SM SCT028 SCT036 BKN044 25/20 A3005 RMK AO2
KMBO 061715Z AUTO 20013KT 10SM SCT027 BKN031 BKN041 24/20 A3005 RMK AO2
KMBO 061655Z AUTO 21010G15KT 10SM SCT026 BKN031 BKN036 24/20 A3006 RMK AO2
KMBO 061635Z AUTO 21012KT 10SM FEW023 SCT032 SCT039 23/20 A3007 RMK AO2
KMBO 061615Z AUTO 20012G17KT 150V230 10SM SCT022 SCT027 BKN039 23/21 A3007 RMK AO2
KMBO 061555Z AUTO 19009G15KT 10SM FEW018 SCT026 BKN043 23/21 A3007 RMK AO2
KMBO 061535Z AUTO 21010KT 10SM SCT018 BKN026 BKN036 23/21 A3007 RMK AO2
KMBO 061515Z AUTO 20008G14KT 10SM BKN015 BKN021 BKN026 22/21 A3007 RMK AO2
KMBO 061455Z AUTO 19011KT 150V220 9SM BKN013 OVC018 21/21 A3006 RMK AO2
KMBO 061435Z AUTO VRB05KT 9SM BKN013 OVC021 21/21 A3005 RMK AO2
KMBO 061415Z AUTO 19004KT 10SM FEW015 BKN021 OVC050 21/21 A3005 RMK AO2
KMBO 061355Z AUTO 19005KT 10SM BKN026 BKN034 OVC050 21/21 A3004 RMK AO2
KMBO 061335Z AUTO 19007KT 140V210 9SM FEW019 BKN026 OVC050 20/20 A3004 RMK AO2
KMBO 061315Z AUTO VRB06KT 9SM BKN019 BKN024 OVC050 20/20 A3003 RMK AO2
KMBO 061255Z AUTO VRB03KT 9SM SCT020 OVC050 20/20 A3003 RMK AO2
KMBO 061235Z AUTO VRB05KT 10SM BKN050 20/20 A3002 RMK AO2
KMBO 061215Z AUTO VRB04G10KT 10SM FEW023 FEW028 BKN050 20/20 A3001 RMK AO2
KMBO 061135Z AUTO 17004KT 10SM SCT012 BKN018 OVC055 20/20 A3000 RMK AO2
KMBO 061115Z AUTO VRB04KT 10SM SCT010 BKN013 OVC019 20/20 A3000 RMK AO2
KMBO 061055Z AUTO VRB04KT 10SM BKN012 OVC018 20/20 A2999 RMK AO2
KMBO 061035Z AUTO 17003KT 10SM BKN012 BKN018 OVC023 20/20 A2999 RMK AO2
KMBO 061015Z AUTO VRB05KT 10SM SCT013 BKN018 OVC050 20/20 A2999 RMK AO2
KMBO 060955Z AUTO VRB04KT 10SM BKN012 BKN018 OVC049 20/20 A2999 RMK AO2
KMBO 060935Z AUTO VRB04KT 10SM FEW012 SCT018 OVC050 20/20 A2999 RMK AO2
KMBO 060855Z AUTO VRB06KT 10SM FEW018 OVC049 20/20 A2998 RMK AO2
KMBO 060815Z AUTO VRB06KT 10SM SCT018 BKN022 OVC049 20/20 A2998 RMK AO2
KMBO 051335Z AUTO 20006KT 3/4SM BR OVC002 16/16 A3001 RMK AO2
KMBO 051255Z AUTO 20005KT 1/4SM FG OVC002 16/16 A3001 RMK AO2
KMBO 051235Z AUTO 20004KT 1/2SM FG OVC002 15/15 A3001 RMK AO2
KMBO 051135Z AUTO 00000KT 1 1/2SM BR OVC002 14/14 A3000 RMK AO2
KMBO 051115Z AUTO 00000KT 3SM BR OVC002 14/14 A3000 RMK AO2
KMBO 051055Z AUTO VRB04KT 2SM BR OVC002 14/14 A3001 RMK AO2
KMBO 051035Z AUTO 00000KT 2 1/2SM BR OVC002 13/13 A3002 RMK AO2
KMBO 051015Z AUTO 00000KT 2SM BR OVC003 13/13 A3003 RMK AO2
KMBO 050955Z AUTO 00000KT 2 1/2SM BR OVC003 13/14 A3003 RMK AO2
KMBO 050935Z AUTO 00000KT 8SM OVC003 13/14 A3004 RMK AO2
KMBO 050855Z AUTO 00000KT 9SM OVC005 14/14 A3005 RMK AO2
KMBO 050835Z AUTO 00000KT 10SM OVC006 14/14 A3006 RMK AO2
KMBO 050815Z AUTO 00000KT 10SM OVC007 14/13 A3006 RMK AO2
KMBO 050755Z AUTO 31003KT 10SM OVC009 14/13 A3006 RMK AO2
KMBO 050735Z AUTO 00000KT 10SM OVC010 13/13 A3007 RMK AO2
KMBO 050715Z AUTO 00000KT 10SM OVC010 13/13 A3006 RMK AO2
KMBO 050655Z AUTO 00000KT 10SM OVC011 13/13 A3006 RMK AO2
KMBO 050615Z AUTO 00000KT 10SM BKN013 OVC055 13/13 A3008 RMK AO2
KMBO 050535Z AUTO 00000KT 10SM OVC060 13/13 A3010 RMK AO2
KMBO 050515Z AUTO 00000KT 10SM OVC060 12/12 A3009 RMK AO2
KMBO 050435Z AUTO 00000KT 10SM SCT013 OVC060 12/12 A3010 RMK AO2
KMBO 050415Z AUTO 00000KT 10SM FEW013 BKN060 BKN080 12/13 A3010 RMK AO2
KMBO 050335Z AUTO 00000KT 10SM FEW015 SCT048 OVC075 13/12 A3012 RMK AO2
KMBO 050315Z AUTO 00000KT 10SM SCT027 OVC048 13/12 A3013 RMK AO2
KMBO 050255Z AUTO 00000KT 10SM OVC026 13/12 A3014 RMK AO2
KMBO 050235Z AUTO 00000KT 10SM OVC023 13/12 A3014 RMK AO2
KMBO 050215Z AUTO 00000KT 10SM OVC023 13/12 A3015 RMK AO2
KMBO 050155Z AUTO 34004KT 10SM OVC023 13/11 A3016 RMK AO2
KMBO 050135Z AUTO 34003KT 10SM OVC025 14/11 A3017 RMK AO2
KMBO 050115Z AUTO VRB05KT 10SM OVC025 14/11 A3016 RMK AO2
KMBO 050055Z AUTO 34005KT 10SM OVC025 14/11 A3016 RMK AO2
KMBO 050035Z AUTO 35005KT 10SM OVC027 14/12 A3016 RMK AO2
KMBO 050015Z AUTO 34006KT 10SM OVC028 15/12 A3016 RMK AO2
KMBO 042355Z AUTO 36005KT 10SM OVC027 15/13 A3015 RMK AO2
KMBO 042335Z AUTO 00000KT 10SM OVC029 16/14 A3015 RMK AO2
KMBO 042315Z AUTO 00000KT 10SM OVC029 16/14 A3015 RMK AO2
KMBO 042255Z AUTO 00000KT 10SM BKN027 OVC032 16/13 A3015 RMK AO2
KMBO 042235Z AUTO 00000KT 10SM BKN032 16/14 A3015 RMK AO2
KMBO 042215Z AUTO 00000KT 10SM FEW033 17/13 A3014 RMK AO2
KMBO 042155Z AUTO 00000KT 10SM CLR 17/13 A3014 RMK AO2
KMBO 042135Z AUTO VRB03KT 10SM CLR 17/12 A3015 RMK AO2
KMBO 042115Z AUTO 00000KT 10SM SCT034 16/12 A3015 RMK AO2
KMBO 042055Z AUTO VRB03KT 10SM BKN033 16/12 A3015 RMK AO2
KMBO 042035Z AUTO 00000KT 10SM SCT027 SCT036 SCT050 17/12 A3015 RMK AO2
KMBO 042015Z AUTO VRB04KT 10SM BKN027 BKN055 17/12 A3018 RMK AO2
KMBO 041955Z AUTO VRB04KT 10SM FEW027 BKN055 17/12 A3018 RMK AO2
KMBO 041935Z AUTO 34004KT 10SM OVC060 17/13 A3020 RMK AO2
KMBO 041915Z AUTO 00000KT 10SM FEW027 SCT041 BKN060 17/12 A3021 RMK AO2
KMBO 041855Z AUTO 00000KT 10SM OVC025 16/11 A3022 RMK AO2
KMBO 041835Z AUTO 00000KT 10SM FEW015 OVC024 15/11 A3023 RMK AO2
KMBO 041815Z AUTO 00000KT 10SM FEW015 BKN021 OVC055 15/11 A3024 RMK AO2
KMBO 041755Z AUTO 00000KT 10SM FEW037 OVC050 15/11 A3025 RMK AO2
KMBO 041735Z AUTO 00000KT 10SM OVC050 14/11 A3026 RMK AO2
KMBO 041715Z AUTO 00000KT 10SM OVC050 14/10 A3027 RMK AO2
KMBO 041555Z AUTO 00000KT 10SM OVC033 11/10 A3032 RMK AO2
KMBO 041535Z AUTO VRB03KT 10SM BKN029 OVC035 11/10 A3033 RMK AO2
KMBO 041515Z AUTO VRB04KT 8SM BKN028 OVC042 11/10 A3032 RMK AO2
KMBO 041455Z AUTO 33006KT 10SM OVC041 11/10 A3031 RMK AO2
KMBO 041435Z AUTO 34004KT 10SM OVC041 11/10 A3031 RMK AO2
KMBO 041415Z AUTO 33004KT 10SM OVC041 11/10 A3030 RMK AO2
KMBO 041355Z AUTO 32004KT 10SM OVC042 10/10 A3030 RMK AO2
KMBO 041335Z AUTO 33004KT 10SM OVC042 10/10 A3030 RMK AO2
KMBO 041315Z AUTO 07004KT 10SM FEW012 OVC042 10/10 A3028 RMK AO2
KMBO 041235Z AUTO 00000KT 10SM OVC012 10/10 A3028 RMK AO2
KMBO 041155Z AUTO 34004KT 10SM OVC008 10/10 A3027 RMK AO2
KMBO 041135Z AUTO 00000KT 10SM OVC006 10/10 A3027 RMK AO2
KMBO 041055Z AUTO 34004KT 10SM OVC006 10/10 A3027 RMK AO2
KMBO 041035Z AUTO 35004KT 10SM OVC006 10/11 A3027 RMK AO2
KMBO 041015Z AUTO 35004KT 10SM OVC006 11/11 A3027 RMK AO2